sensor_id;sensor_type;location;lat;lon;timestamp;temperature;humidity
55121;DHT22;41019;48.512;9.036;2023-04-08T00:00:04;8.90;97.80
55121;DHT22;41019;48.512;9.036;2023-04-08T00:02:35;8.90;97.90
55121;DHT22;41019;48.512;9.036;2023-04-08T00:05:01;8.80;97.80
55121;DHT22;41019;48.512;9.036;2023-04-08T00:07:27;8.90;97.50
55121;DHT22;41019;48.512;9.036;2023-04-08T00:09:54;8.80;97.60
55121;DHT22;41019;48.512;9.036;2023-04-08T00:12:21;8.80;97.80
55121;DHT22;41019;48.512;9.036;2023-04-08T00:14:47;8.70;97.70
55121;DHT22;41019;48.512;9.036;2023-04-08T00:17:14;8.70;97.80
55121;DHT22;41019;48.512;9.036;2023-04-08T00:19:40;8.60;97.80
55121;DHT22;41019;48.512;9.036;2023-04-08T00:22:06;8.60;97.90
55121;DHT22;41019;48.512;9.036;2023-04-08T00:24:32;8.60;98.00
55121;DHT22;41019;48.512;9.036;2023-04-08T00:26:57;8.50;97.70
55121;DHT22;41019;48.512;9.036;2023-04-08T00:29:23;8.60;97.70
55121;DHT22;41019;48.512;9.036;2023-04-08T00:31:49;8.50;98.40
55121;DHT22;41019;48.512;9.036;2023-04-08T00:34:16;8.50;98.70
55121;DHT22;41019;48.512;9.036;2023-04-08T00:36:42;8.50;98.80
55121;DHT22;41019;48.512;9.036;2023-04-08T00:39:07;8.50;98.80
55121;DHT22;41019;48.512;9.036;2023-04-08T00:41:34;8.60;99.00
55121;DHT22;41019;48.512;9.036;2023-04-08T00:44:01;8.60;98.90
55121;DHT22;41019;48.512;9.036;2023-04-08T00:46:26;8.60;98.70
55121;DHT22;41019;48.512;9.036;2023-04-08T00:48:53;8.70;98.80
55121;DHT22;41019;48.512;9.036;2023-04-08T00:51:20;8.70;98.90
55121;DHT22;41019;48.512;9.036;2023-04-08T00:53:46;8.70;98.90
55121;DHT22;41019;48.512;9.036;2023-04-08T00:56:12;8.70;98.90
55121;DHT22;41019;48.512;9.036;2023-04-08T00:58:38;8.70;98.80
55121;DHT22;41019;48.512;9.036;2023-04-08T01:01:20;8.70;98.70
55121;DHT22;41019;48.512;9.036;2023-04-08T01:06:48;8.80;98.70
55121;DHT22;41019;48.512;9.036;2023-04-08T01:09:18;8.80;98.80
55121;DHT22;41019;48.512;9.036;2023-04-08T01:11:49;8.80;98.80
55121;DHT22;41019;48.512;9.036;2023-04-08T01:14:20;8.80;98.90
55121;DHT22;41019;48.512;9.036;2023-04-08T01:16:51;8.80;98.80
55121;DHT22;41019;48.512;9.036;2023-04-08T01:19:33;8.90;98.80
55121;DHT22;41019;48.512;9.036;2023-04-08T01:24:56;8.90;98.70
55121;DHT22;41019;48.512;9.036;2023-04-08T01:27:26;8.90;98.70
55121;DHT22;41019;48.512;9.036;2023-04-08T01:29:54;8.90;98.50
55121;DHT22;41019;48.512;9.036;2023-04-08T01:32:21;8.90;98.50
55121;DHT22;41019;48.512;9.036;2023-04-08T01:34:48;8.90;98.40
55121;DHT22;41019;48.512;9.036;2023-04-08T01:37:15;8.90;98.40
55121;DHT22;41019;48.512;9.036;2023-04-08T01:39:43;8.90;98.20
55121;DHT22;41019;48.512;9.036;2023-04-08T01:42:12;8.80;98.30
55121;DHT22;41019;48.512;9.036;2023-04-08T01:44:40;8.80;98.50
55121;DHT22;41019;48.512;9.036;2023-04-08T01:47:09;8.80;98.30
55121;DHT22;41019;48.512;9.036;2023-04-08T01:49:37;8.80;98.30
55121;DHT22;41019;48.512;9.036;2023-04-08T01:52:06;8.80;98.50
55121;DHT22;41019;48.512;9.036;2023-04-08T01:54:33;8.80;98.50
55121;DHT22;41019;48.512;9.036;2023-04-08T01:57:04;8.80;98.40
55121;DHT22;41019;48.512;9.036;2023-04-08T01:59:35;8.70;98.40
55121;DHT22;41019;48.512;9.036;2023-04-08T02:02:06;8.70;98.70
55121;DHT22;41019;48.512;9.036;2023-04-08T02:04:34;8.70;98.50
55121;DHT22;41019;48.512;9.036;2023-04-08T02:07:01;8.70;98.60
55121;DHT22;41019;48.512;9.036;2023-04-08T02:09:28;8.70;98.70
55121;DHT22;41019;48.512;9.036;2023-04-08T02:11:55;8.70;98.70
55121;DHT22;41019;48.512;9.036;2023-04-08T02:14:23;8.70;98.70
55121;DHT22;41019;48.512;9.036;2023-04-08T02:17:00;8.70;98.70
55121;DHT22;41019;48.512;9.036;2023-04-08T02:19:49;8.70;98.70
55121;DHT22;41019;48.512;9.036;2023-04-08T02:22:42;8.70;98.70
55121;DHT22;41019;48.512;9.036;2023-04-08T02:25:16;8.70;98.80
55121;DHT22;41019;48.512;9.036;2023-04-08T02:27:47;8.70;98.90
55121;DHT22;41019;48.512;9.036;2023-04-08T02:30:16;8.70;98.80
55121;DHT22;41019;48.512;9.036;2023-04-08T02:32:43;8.70;98.80
55121;DHT22;41019;48.512;9.036;2023-04-08T02:35:12;8.70;98.90
55121;DHT22;41019;48.512;9.036;2023-04-08T02:37:39;8.70;98.90
55121;DHT22;41019;48.512;9.036;2023-04-08T02:40:31;8.70;98.80
55121;DHT22;41019;48.512;9.036;2023-04-08T02:42:59;8.70;98.90
55121;DHT22;41019;48.512;9.036;2023-04-08T02:45:37;8.70;98.80
55121;DHT22;41019;48.512;9.036;2023-04-08T02:48:03;8.70;98.80
55121;DHT22;41019;48.512;9.036;2023-04-08T02:50:31;8.70;98.90
55121;DHT22;41019;48.512;9.036;2023-04-08T02:52:57;8.70;99.00
55121;DHT22;41019;48.512;9.036;2023-04-08T02:55:23;8.70;99.00
55121;DHT22;41019;48.512;9.036;2023-04-08T02:57:49;8.70;99.00
55121;DHT22;41019;48.512;9.036;2023-04-08T03:00:15;8.70;98.80
55121;DHT22;41019;48.512;9.036;2023-04-08T03:02:41;8.70;98.90
55121;DHT22;41019;48.512;9.036;2023-04-08T03:05:07;8.70;98.80
55121;DHT22;41019;48.512;9.036;2023-04-08T03:07:34;8.70;99.00
55121;DHT22;41019;48.512;9.036;2023-04-08T03:10:02;8.70;98.90
55121;DHT22;41019;48.512;9.036;2023-04-08T03:12:28;8.70;98.70
55121;DHT22;41019;48.512;9.036;2023-04-08T03:14:54;8.70;98.80
55121;DHT22;41019;48.512;9.036;2023-04-08T03:17:20;8.70;98.80
55121;DHT22;41019;48.512;9.036;2023-04-08T03:19:46;8.70;98.70
55121;DHT22;41019;48.512;9.036;2023-04-08T03:22:13;8.70;98.70
55121;DHT22;41019;48.512;9.036;2023-04-08T03:24:39;8.70;98.70
55121;DHT22;41019;48.512;9.036;2023-04-08T03:27:05;8.70;98.70
55121;DHT22;41019;48.512;9.036;2023-04-08T03:29:32;8.70;98.90
55121;DHT22;41019;48.512;9.036;2023-04-08T03:31:59;8.60;98.90
55121;DHT22;41019;48.512;9.036;2023-04-08T03:34:25;8.60;98.90
55121;DHT22;41019;48.512;9.036;2023-04-08T03:36:50;8.60;98.90
55121;DHT22;41019;48.512;9.036;2023-04-08T03:39:16;8.60;98.80
55121;DHT22;41019;48.512;9.036;2023-04-08T03:41:42;8.60;98.70
55121;DHT22;41019;48.512;9.036;2023-04-08T03:44:08;8.60;98.80
55121;DHT22;41019;48.512;9.036;2023-04-08T03:46:34;8.60;98.80
55121;DHT22;41019;48.512;9.036;2023-04-08T03:49:00;8.60;98.80
55121;DHT22;41019;48.512;9.036;2023-04-08T03:51:26;8.60;98.90
55121;DHT22;41019;48.512;9.036;2023-04-08T03:53:53;8.50;98.80
55121;DHT22;41019;48.512;9.036;2023-04-08T03:56:18;8.50;98.70
55121;DHT22;41019;48.512;9.036;2023-04-08T03:58:45;8.50;98.60
55121;DHT22;41019;48.512;9.036;2023-04-08T04:01:12;8.50;98.70
55121;DHT22;41019;48.512;9.036;2023-04-08T04:03:37;8.50;98.60
55121;DHT22;41019;48.512;9.036;2023-04-08T04:06:04;8.50;98.80
55121;DHT22;41019;48.512;9.036;2023-04-08T04:08:30;8.50;98.70
55121;DHT22;41019;48.512;9.036;2023-04-08T04:10:58;8.40;98.70
55121;DHT22;41019;48.512;9.036;2023-04-08T04:13:24;8.40;98.60
55121;DHT22;41019;48.512;9.036;2023-04-08T04:15:50;8.40;98.70
55121;DHT22;41019;48.512;9.036;2023-04-08T04:18:16;8.40;98.70
55121;DHT22;41019;48.512;9.036;2023-04-08T04:20:42;8.40;98.50
55121;DHT22;41019;48.512;9.036;2023-04-08T04:23:08;8.30;98.70
55121;DHT22;41019;48.512;9.036;2023-04-08T04:25:35;8.40;98.60
55121;DHT22;41019;48.512;9.036;2023-04-08T04:28:00;8.40;98.60
55121;DHT22;41019;48.512;9.036;2023-04-08T04:30:27;8.40;98.50
55121;DHT22;41019;48.512;9.036;2023-04-08T04:32:54;8.30;98.40
55121;DHT22;41019;48.512;9.036;2023-04-08T04:35:20;8.40;98.40
55121;DHT22;41019;48.512;9.036;2023-04-08T04:37:47;8.30;98.40
55121;DHT22;41019;48.512;9.036;2023-04-08T04:40:15;8.30;98.40
55121;DHT22;41019;48.512;9.036;2023-04-08T04:42:41;8.30;98.40
55121;DHT22;41019;48.512;9.036;2023-04-08T04:45:07;8.30;98.50
55121;DHT22;41019;48.512;9.036;2023-04-08T04:47:33;8.30;98.40
55121;DHT22;41019;48.512;9.036;2023-04-08T04:49:59;8.30;98.30
55121;DHT22;41019;48.512;9.036;2023-04-08T04:52:26;8.30;98.20
55121;DHT22;41019;48.512;9.036;2023-04-08T04:54:51;8.30;98.00
55121;DHT22;41019;48.512;9.036;2023-04-08T04:57:18;8.30;98.10
55121;DHT22;41019;48.512;9.036;2023-04-08T04:59:44;8.30;98.00
55121;DHT22;41019;48.512;9.036;2023-04-08T05:02:10;8.30;98.20
55121;DHT22;41019;48.512;9.036;2023-04-08T05:04:35;8.30;98.40
55121;DHT22;41019;48.512;9.036;2023-04-08T05:07:01;8.30;98.20
55121;DHT22;41019;48.512;9.036;2023-04-08T05:09:28;8.30;98.20
55121;DHT22;41019;48.512;9.036;2023-04-08T05:11:55;8.30;98.20
55121;DHT22;41019;48.512;9.036;2023-04-08T05:14:21;8.30;98.60
55121;DHT22;41019;48.512;9.036;2023-04-08T05:16:47;8.30;98.90
55121;DHT22;41019;48.512;9.036;2023-04-08T05:19:13;8.30;99.00
55121;DHT22;41019;48.512;9.036;2023-04-08T05:21:39;8.30;99.00
55121;DHT22;41019;48.512;9.036;2023-04-08T05:24:04;8.30;99.10
55121;DHT22;41019;48.512;9.036;2023-04-08T05:26:31;8.30;98.90
55121;DHT22;41019;48.512;9.036;2023-04-08T05:28:57;8.30;99.30
55121;DHT22;41019;48.512;9.036;2023-04-08T05:31:23;8.30;99.30
55121;DHT22;41019;48.512;9.036;2023-04-08T05:33:49;8.30;99.40
55121;DHT22;41019;48.512;9.036;2023-04-08T05:36:15;8.30;99.40
55121;DHT22;41019;48.512;9.036;2023-04-08T05:38:41;8.40;99.30
55121;DHT22;41019;48.512;9.036;2023-04-08T05:41:10;8.40;99.40
55121;DHT22;41019;48.512;9.036;2023-04-08T05:43:36;8.40;99.50
55121;DHT22;41019;48.512;9.036;2023-04-08T05:46:06;8.40;99.60
55121;DHT22;41019;48.512;9.036;2023-04-08T05:48:32;8.50;99.40
55121;DHT22;41019;48.512;9.036;2023-04-08T05:50:59;8.50;99.20
55121;DHT22;41019;48.512;9.036;2023-04-08T05:53:24;8.60;99.20
55121;DHT22;41019;48.512;9.036;2023-04-08T05:55:50;8.60;99.20
55121;DHT22;41019;48.512;9.036;2023-04-08T05:58:16;8.70;99.20
55121;DHT22;41019;48.512;9.036;2023-04-08T06:00:42;8.70;99.20
55121;DHT22;41019;48.512;9.036;2023-04-08T06:03:08;8.70;99.10
55121;DHT22;41019;48.512;9.036;2023-04-08T06:05:33;8.80;99.00
55121;DHT22;41019;48.512;9.036;2023-04-08T06:07:59;8.80;99.00
55121;DHT22;41019;48.512;9.036;2023-04-08T06:10:25;8.80;99.00
55121;DHT22;41019;48.512;9.036;2023-04-08T06:12:52;8.80;99.00
55121;DHT22;41019;48.512;9.036;2023-04-08T06:15:17;8.90;98.80
55121;DHT22;41019;48.512;9.036;2023-04-08T06:17:43;8.90;98.70
55121;DHT22;41019;48.512;9.036;2023-04-08T06:20:09;8.90;98.60
55121;DHT22;41019;48.512;9.036;2023-04-08T06:22:35;9.00;98.60
55121;DHT22;41019;48.512;9.036;2023-04-08T06:25:01;9.10;98.50
55121;DHT22;41019;48.512;9.036;2023-04-08T06:27:27;9.20;98.50
55121;DHT22;41019;48.512;9.036;2023-04-08T06:29:53;9.20;98.30
55121;DHT22;41019;48.512;9.036;2023-04-08T06:32:20;9.30;98.20
55121;DHT22;41019;48.512;9.036;2023-04-08T06:34:47;9.30;98.00
55121;DHT22;41019;48.512;9.036;2023-04-08T06:37:13;9.40;97.90
55121;DHT22;41019;48.512;9.036;2023-04-08T06:39:39;9.50;97.50
55121;DHT22;41019;48.512;9.036;2023-04-08T06:42:04;9.50;97.50
55121;DHT22;41019;48.512;9.036;2023-04-08T06:44:56;9.50;97.40
55121;DHT22;41019;48.512;9.036;2023-04-08T06:47:23;9.70;97.40
55121;DHT22;41019;48.512;9.036;2023-04-08T06:49:49;9.70;97.00
55121;DHT22;41019;48.512;9.036;2023-04-08T06:52:15;9.80;96.60
55121;DHT22;41019;48.512;9.036;2023-04-08T06:54:42;9.80;96.40
55121;DHT22;41019;48.512;9.036;2023-04-08T06:57:08;9.90;96.10
55121;DHT22;41019;48.512;9.036;2023-04-08T06:59:34;10.00;96.60
55121;DHT22;41019;48.512;9.036;2023-04-08T07:02:00;10.10;96.00
55121;DHT22;41019;48.512;9.036;2023-04-08T07:04:25;10.20;96.00
55121;DHT22;41019;48.512;9.036;2023-04-08T07:06:51;10.20;95.30
55121;DHT22;41019;48.512;9.036;2023-04-08T07:09:17;10.30;94.70
55121;DHT22;41019;48.512;9.036;2023-04-08T07:11:44;10.30;94.90
55121;DHT22;41019;48.512;9.036;2023-04-08T07:14:11;10.30;94.40
55121;DHT22;41019;48.512;9.036;2023-04-08T07:16:37;10.40;94.60
55121;DHT22;41019;48.512;9.036;2023-04-08T07:19:03;10.40;94.30
55121;DHT22;41019;48.512;9.036;2023-04-08T07:21:29;10.40;93.80
55121;DHT22;41019;48.512;9.036;2023-04-08T07:23:55;10.30;93.70
55121;DHT22;41019;48.512;9.036;2023-04-08T07:26:21;10.40;93.70
55121;DHT22;41019;48.512;9.036;2023-04-08T07:28:47;10.40;94.00
55121;DHT22;41019;48.512;9.036;2023-04-08T07:31:16;10.40;93.40
55121;DHT22;41019;48.512;9.036;2023-04-08T07:33:43;10.40;93.50
55121;DHT22;41019;48.512;9.036;2023-04-08T07:36:10;10.40;93.40
55121;DHT22;41019;48.512;9.036;2023-04-08T07:38:37;10.40;93.20
55121;DHT22;41019;48.512;9.036;2023-04-08T07:41:03;10.40;93.00
55121;DHT22;41019;48.512;9.036;2023-04-08T07:43:30;10.50;93.20
55121;DHT22;41019;48.512;9.036;2023-04-08T07:46:00;10.50;93.20
55121;DHT22;41019;48.512;9.036;2023-04-08T07:48:28;10.50;92.80
55121;DHT22;41019;48.512;9.036;2023-04-08T07:50:54;10.50;93.00
55121;DHT22;41019;48.512;9.036;2023-04-08T07:53:21;10.50;92.80
55121;DHT22;41019;48.512;9.036;2023-04-08T07:55:48;10.50;92.70
55121;DHT22;41019;48.512;9.036;2023-04-08T07:58:14;10.60;92.70
55121;DHT22;41019;48.512;9.036;2023-04-08T08:00:40;10.60;92.60
55121;DHT22;41019;48.512;9.036;2023-04-08T08:03:05;10.60;92.70
55121;DHT22;41019;48.512;9.036;2023-04-08T08:05:31;10.60;92.00
55121;DHT22;41019;48.512;9.036;2023-04-08T08:07:57;10.60;92.00
55121;DHT22;41019;48.512;9.036;2023-04-08T08:10:23;10.60;91.90
55121;DHT22;41019;48.512;9.036;2023-04-08T08:12:49;10.60;91.60
55121;DHT22;41019;48.512;9.036;2023-04-08T08:15:15;10.60;91.40
55121;DHT22;41019;48.512;9.036;2023-04-08T08:17:41;10.60;91.70
55121;DHT22;41019;48.512;9.036;2023-04-08T08:20:07;10.60;91.50
55121;DHT22;41019;48.512;9.036;2023-04-08T08:22:33;10.60;91.40
55121;DHT22;41019;48.512;9.036;2023-04-08T08:24:59;10.60;91.40
55121;DHT22;41019;48.512;9.036;2023-04-08T08:27:24;10.60;91.80
55121;DHT22;41019;48.512;9.036;2023-04-08T08:29:51;10.60;90.90
55121;DHT22;41019;48.512;9.036;2023-04-08T08:32:17;10.70;90.70
55121;DHT22;41019;48.512;9.036;2023-04-08T08:34:43;10.80;90.80
55121;DHT22;41019;48.512;9.036;2023-04-08T08:37:09;10.80;90.90
55121;DHT22;41019;48.512;9.036;2023-04-08T08:39:35;10.90;90.50
55121;DHT22;41019;48.512;9.036;2023-04-08T08:42:01;10.90;90.50
55121;DHT22;41019;48.512;9.036;2023-04-08T08:44:28;11.00;90.70
55121;DHT22;41019;48.512;9.036;2023-04-08T08:46:54;11.00;90.90
55121;DHT22;41019;48.512;9.036;2023-04-08T08:49:20;11.10;90.80
55121;DHT22;41019;48.512;9.036;2023-04-08T08:51:45;11.00;90.00
55121;DHT22;41019;48.512;9.036;2023-04-08T08:54:13;11.00;90.10
55121;DHT22;41019;48.512;9.036;2023-04-08T08:56:39;11.10;90.20
55121;DHT22;41019;48.512;9.036;2023-04-08T08:59:08;11.20;90.10
55121;DHT22;41019;48.512;9.036;2023-04-08T09:01:36;11.40;89.30
55121;DHT22;41019;48.512;9.036;2023-04-08T09:04:16;11.50;88.60
55121;DHT22;41019;48.512;9.036;2023-04-08T09:07:07;11.60;87.30
55121;DHT22;41019;48.512;9.036;2023-04-08T09:09:50;11.70;85.60
55121;DHT22;41019;48.512;9.036;2023-04-08T09:12:16;11.90;86.50
55121;DHT22;41019;48.512;9.036;2023-04-08T09:14:42;12.00;86.30
55121;DHT22;41019;48.512;9.036;2023-04-08T09:17:08;12.10;85.60
55121;DHT22;41019;48.512;9.036;2023-04-08T09:19:34;12.10;85.40
55121;DHT22;41019;48.512;9.036;2023-04-08T09:22:07;12.20;86.30
55121;DHT22;41019;48.512;9.036;2023-04-08T09:24:35;12.20;86.50
55121;DHT22;41019;48.512;9.036;2023-04-08T09:27:04;12.30;85.80
55121;DHT22;41019;48.512;9.036;2023-04-08T09:29:30;12.30;84.70
55121;DHT22;41019;48.512;9.036;2023-04-08T09:32:00;12.40;82.00
55121;DHT22;41019;48.512;9.036;2023-04-08T09:34:27;12.40;82.50
55121;DHT22;41019;48.512;9.036;2023-04-08T09:36:54;12.50;82.00
55121;DHT22;41019;48.512;9.036;2023-04-08T09:39:20;12.60;82.40
55121;DHT22;41019;48.512;9.036;2023-04-08T09:41:50;12.60;80.70
55121;DHT22;41019;48.512;9.036;2023-04-08T09:44:20;12.70;81.50
55121;DHT22;41019;48.512;9.036;2023-04-08T09:47:00;12.60;81.60
55121;DHT22;41019;48.512;9.036;2023-04-08T09:49:28;12.80;81.00
55121;DHT22;41019;48.512;9.036;2023-04-08T09:52:10;12.90;79.80
55121;DHT22;41019;48.512;9.036;2023-04-08T09:54:52;13.10;78.70
55121;DHT22;41019;48.512;9.036;2023-04-08T09:57:24;13.30;78.20
55121;DHT22;41019;48.512;9.036;2023-04-08T10:00:04;13.50;77.30
55121;DHT22;41019;48.512;9.036;2023-04-08T10:03:09;13.70;76.00
55121;DHT22;41019;48.512;9.036;2023-04-08T10:05:40;13.90;75.30
55121;DHT22;41019;48.512;9.036;2023-04-08T10:08:06;14.10;72.90
55121;DHT22;41019;48.512;9.036;2023-04-08T10:10:38;14.20;68.80
55121;DHT22;41019;48.512;9.036;2023-04-08T10:13:06;14.20;67.80
55121;DHT22;41019;48.512;9.036;2023-04-08T10:15:33;14.30;68.10
55121;DHT22;41019;48.512;9.036;2023-04-08T10:23:16;14.50;66.90
55121;DHT22;41019;48.512;9.036;2023-04-08T10:25:46;14.50;65.80
55121;DHT22;41019;48.512;9.036;2023-04-08T10:30:46;14.90;66.40
55121;DHT22;41019;48.512;9.036;2023-04-08T10:33:19;15.20;67.60
55121;DHT22;41019;48.512;9.036;2023-04-08T10:35:53;15.50;63.60
55121;DHT22;41019;48.512;9.036;2023-04-08T10:38:19;15.70;61.60
55121;DHT22;41019;48.512;9.036;2023-04-08T10:40:47;15.90;59.70
55121;DHT22;41019;48.512;9.036;2023-04-08T10:43:14;16.00;59.70
55121;DHT22;41019;48.512;9.036;2023-04-08T10:45:42;16.10;61.40
55121;DHT22;41019;48.512;9.036;2023-04-08T10:50:40;15.90;62.10
55121;DHT22;41019;48.512;9.036;2023-04-08T10:53:06;15.80;57.50
55121;DHT22;41019;48.512;9.036;2023-04-08T10:55:33;15.90;59.10
55121;DHT22;41019;48.512;9.036;2023-04-08T10:58:07;16.00;59.20
55121;DHT22;41019;48.512;9.036;2023-04-08T11:00:39;15.90;59.20
55121;DHT22;41019;48.512;9.036;2023-04-08T11:03:07;15.70;59.00
55121;DHT22;41019;48.512;9.036;2023-04-08T11:05:34;15.60;60.90
55121;DHT22;41019;48.512;9.036;2023-04-08T11:08:01;15.60;59.90
55121;DHT22;41019;48.512;9.036;2023-04-08T11:10:28;15.60;60.20
55121;DHT22;41019;48.512;9.036;2023-04-08T11:12:55;15.40;58.10
55121;DHT22;41019;48.512;9.036;2023-04-08T11:15:23;15.20;59.00
55121;DHT22;41019;48.512;9.036;2023-04-08T11:17:50;15.10;60.40
55121;DHT22;41019;48.512;9.036;2023-04-08T11:20:16;15.00;59.60
55121;DHT22;41019;48.512;9.036;2023-04-08T11:22:46;14.90;60.50
55121;DHT22;41019;48.512;9.036;2023-04-08T11:25:13;14.90;60.40
55121;DHT22;41019;48.512;9.036;2023-04-08T11:27:39;14.80;61.30
55121;DHT22;41019;48.512;9.036;2023-04-08T11:30:09;14.70;60.80
55121;DHT22;41019;48.512;9.036;2023-04-08T11:32:37;14.70;61.00
55121;DHT22;41019;48.512;9.036;2023-04-08T11:35:07;14.60;60.90
55121;DHT22;41019;48.512;9.036;2023-04-08T11:37:40;14.60;61.10
55121;DHT22;41019;48.512;9.036;2023-04-08T11:40:11;14.50;60.30
55121;DHT22;41019;48.512;9.036;2023-04-08T11:42:38;14.20;59.50
55121;DHT22;41019;48.512;9.036;2023-04-08T11:45:12;14.10;59.30
55121;DHT22;41019;48.512;9.036;2023-04-08T11:47:38;14.10;59.10
55121;DHT22;41019;48.512;9.036;2023-04-08T11:50:05;14.00;60.00
55121;DHT22;41019;48.512;9.036;2023-04-08T11:52:48;14.00;60.10
55121;DHT22;41019;48.512;9.036;2023-04-08T11:55:29;13.90;59.20
55121;DHT22;41019;48.512;9.036;2023-04-08T11:58:00;13.90;60.80
55121;DHT22;41019;48.512;9.036;2023-04-08T12:00:26;13.80;60.10
55121;DHT22;41019;48.512;9.036;2023-04-08T12:02:53;13.70;59.60
55121;DHT22;41019;48.512;9.036;2023-04-08T12:05:19;13.70;59.80
55121;DHT22;41019;48.512;9.036;2023-04-08T12:07:46;13.70;60.60
55121;DHT22;41019;48.512;9.036;2023-04-08T12:10:12;13.70;62.10
55121;DHT22;41019;48.512;9.036;2023-04-08T12:12:39;13.80;63.20
55121;DHT22;41019;48.512;9.036;2023-04-08T12:15:06;13.80;61.30
55121;DHT22;41019;48.512;9.036;2023-04-08T12:17:33;13.70;61.80
55121;DHT22;41019;48.512;9.036;2023-04-08T12:19:59;13.70;61.60
55121;DHT22;41019;48.512;9.036;2023-04-08T12:22:26;13.70;61.80
55121;DHT22;41019;48.512;9.036;2023-04-08T12:24:51;13.60;63.80
55121;DHT22;41019;48.512;9.036;2023-04-08T12:27:17;13.50;63.40
55121;DHT22;41019;48.512;9.036;2023-04-08T12:29:43;13.50;62.70
55121;DHT22;41019;48.512;9.036;2023-04-08T12:32:10;13.40;63.50
55121;DHT22;41019;48.512;9.036;2023-04-08T12:34:37;13.40;65.60
55121;DHT22;41019;48.512;9.036;2023-04-08T12:37:02;13.40;64.90
55121;DHT22;41019;48.512;9.036;2023-04-08T12:39:28;13.40;65.10
55121;DHT22;41019;48.512;9.036;2023-04-08T12:41:54;13.30;65.40
55121;DHT22;41019;48.512;9.036;2023-04-08T12:44:21;13.30;65.90
55121;DHT22;41019;48.512;9.036;2023-04-08T12:46:47;13.30;66.50
55121;DHT22;41019;48.512;9.036;2023-04-08T12:49:12;13.20;66.10
55121;DHT22;41019;48.512;9.036;2023-04-08T12:51:38;13.30;67.10
55121;DHT22;41019;48.512;9.036;2023-04-08T12:54:05;13.30;66.10
55121;DHT22;41019;48.512;9.036;2023-04-08T12:56:31;13.40;65.60
55121;DHT22;41019;48.512;9.036;2023-04-08T12:58:58;13.50;65.40
55121;DHT22;41019;48.512;9.036;2023-04-08T13:01:26;13.50;64.70
55121;DHT22;41019;48.512;9.036;2023-04-08T13:03:52;13.50;64.20
55121;DHT22;41019;48.512;9.036;2023-04-08T13:06:18;13.60;64.00
55121;DHT22;41019;48.512;9.036;2023-04-08T13:08:44;13.60;62.20
55121;DHT22;41019;48.512;9.036;2023-04-08T13:11:10;13.60;61.50
55121;DHT22;41019;48.512;9.036;2023-04-08T13:13:36;13.60;61.40
55121;DHT22;41019;48.512;9.036;2023-04-08T13:16:02;13.60;61.70
55121;DHT22;41019;48.512;9.036;2023-04-08T13:18:28;13.70;62.90
55121;DHT22;41019;48.512;9.036;2023-04-08T13:20:54;13.60;60.30
55121;DHT22;41019;48.512;9.036;2023-04-08T13:23:20;13.60;61.70
55121;DHT22;41019;48.512;9.036;2023-04-08T13:25:47;13.70;61.80
55121;DHT22;41019;48.512;9.036;2023-04-08T13:28:13;13.70;61.70
55121;DHT22;41019;48.512;9.036;2023-04-08T13:30:39;13.70;61.10
55121;DHT22;41019;48.512;9.036;2023-04-08T13:33:05;13.60;60.60
55121;DHT22;41019;48.512;9.036;2023-04-08T13:35:31;13.60;61.80
55121;DHT22;41019;48.512;9.036;2023-04-08T13:37:57;13.50;61.70
55121;DHT22;41019;48.512;9.036;2023-04-08T13:40:22;13.40;61.30
55121;DHT22;41019;48.512;9.036;2023-04-08T13:42:48;13.30;60.10
55121;DHT22;41019;48.512;9.036;2023-04-08T13:45:14;13.20;60.70
55121;DHT22;41019;48.512;9.036;2023-04-08T13:47:40;13.10;59.90
55121;DHT22;41019;48.512;9.036;2023-04-08T13:50:07;13.10;60.60
55121;DHT22;41019;48.512;9.036;2023-04-08T13:52:33;13.10;61.00
55121;DHT22;41019;48.512;9.036;2023-04-08T13:55:00;13.00;60.80
55121;DHT22;41019;48.512;9.036;2023-04-08T13:57:26;12.90;61.60
55121;DHT22;41019;48.512;9.036;2023-04-08T13:59:52;12.80;61.80
55121;DHT22;41019;48.512;9.036;2023-04-08T14:02:17;12.90;63.40
55121;DHT22;41019;48.512;9.036;2023-04-08T14:04:43;12.80;62.40
55121;DHT22;41019;48.512;9.036;2023-04-08T14:07:13;12.80;62.80
55121;DHT22;41019;48.512;9.036;2023-04-08T14:09:39;12.70;62.60
55121;DHT22;41019;48.512;9.036;2023-04-08T14:12:05;12.80;63.60
55121;DHT22;41019;48.512;9.036;2023-04-08T14:14:31;12.70;63.90
55121;DHT22;41019;48.512;9.036;2023-04-08T14:16:57;12.70;64.10
55121;DHT22;41019;48.512;9.036;2023-04-08T14:19:22;12.70;64.90
55121;DHT22;41019;48.512;9.036;2023-04-08T14:21:49;12.60;64.60
55121;DHT22;41019;48.512;9.036;2023-04-08T14:24:15;12.60;65.40
55121;DHT22;41019;48.512;9.036;2023-04-08T14:26:41;12.60;64.70
55121;DHT22;41019;48.512;9.036;2023-04-08T14:29:07;12.60;66.60
55121;DHT22;41019;48.512;9.036;2023-04-08T14:31:34;12.60;65.30
55121;DHT22;41019;48.512;9.036;2023-04-08T14:34:01;12.60;65.40
55121;DHT22;41019;48.512;9.036;2023-04-08T14:36:27;12.50;65.60
55121;DHT22;41019;48.512;9.036;2023-04-08T14:38:54;12.50;66.00
55121;DHT22;41019;48.512;9.036;2023-04-08T14:41:20;12.50;66.10
55121;DHT22;41019;48.512;9.036;2023-04-08T14:43:47;12.50;66.80
55121;DHT22;41019;48.512;9.036;2023-04-08T14:46:13;12.50;65.70
55121;DHT22;41019;48.512;9.036;2023-04-08T14:48:40;12.50;66.40
55121;DHT22;41019;48.512;9.036;2023-04-08T14:51:06;12.40;66.20
55121;DHT22;41019;48.512;9.036;2023-04-08T14:53:32;12.40;66.50
55121;DHT22;41019;48.512;9.036;2023-04-08T14:55:58;12.40;66.00
55121;DHT22;41019;48.512;9.036;2023-04-08T14:58:25;12.40;67.50
55121;DHT22;41019;48.512;9.036;2023-04-08T15:00:51;12.50;66.80
55121;DHT22;41019;48.512;9.036;2023-04-08T15:03:17;12.50;66.20
55121;DHT22;41019;48.512;9.036;2023-04-08T15:05:54;12.40;66.30
55121;DHT22;41019;48.512;9.036;2023-04-08T15:08:21;12.50;66.70
55121;DHT22;41019;48.512;9.036;2023-04-08T15:10:46;12.50;66.70
55121;DHT22;41019;48.512;9.036;2023-04-08T15:13:12;12.60;66.80
55121;DHT22;41019;48.512;9.036;2023-04-08T15:15:38;12.60;66.40
55121;DHT22;41019;48.512;9.036;2023-04-08T15:18:04;12.60;66.60
55121;DHT22;41019;48.512;9.036;2023-04-08T15:20:30;12.50;66.40
55121;DHT22;41019;48.512;9.036;2023-04-08T15:22:56;12.50;66.10
55121;DHT22;41019;48.512;9.036;2023-04-08T15:25:22;12.50;66.70
55121;DHT22;41019;48.512;9.036;2023-04-08T15:27:47;12.50;66.10
55121;DHT22;41019;48.512;9.036;2023-04-08T15:30:14;12.40;66.70
55121;DHT22;41019;48.512;9.036;2023-04-08T15:32:40;12.40;66.40
55121;DHT22;41019;48.512;9.036;2023-04-08T15:35:06;12.30;66.30
55121;DHT22;41019;48.512;9.036;2023-04-08T15:37:32;12.40;66.80
55121;DHT22;41019;48.512;9.036;2023-04-08T15:39:58;12.40;67.30
55121;DHT22;41019;48.512;9.036;2023-04-08T15:42:25;12.40;67.00
55121;DHT22;41019;48.512;9.036;2023-04-08T15:44:50;12.40;66.80
55121;DHT22;41019;48.512;9.036;2023-04-08T15:47:16;12.40;66.60
55121;DHT22;41019;48.512;9.036;2023-04-08T15:49:42;12.40;68.70
55121;DHT22;41019;48.512;9.036;2023-04-08T15:52:08;12.30;67.50
55121;DHT22;41019;48.512;9.036;2023-04-08T15:54:34;12.30;68.10